.
WxDataArchive / Data Records for 2015-12-10
2015-12-09 December 2015 2015-12-11

Data Records for Thursday, 10 December 2015

Time	Temp	Chill	HIndex	Humid	Dewpt	 Wind 	HiWind	WindDir	Rain 	Barom
-----	----	-----	------	-----	-----	------	------	-------	-----	-----
00:00	43.3	43.3	43.3	88	40.0	0	1	248	0.00	29.813 
00:05	43.3	43.3	43.3	87	39.7	0	2	248	0.00	29.813 
00:10	43.3	43.3	43.3	87	39.7	0	1	248	0.00	29.813 
00:15	43.3	43.3	43.3	87	39.7	0	1	248	0.00	29.822 
00:20	43.3	43.3	43.3	87	39.7	0	1	248	0.00	29.822 
00:25	43.3	43.3	43.3	88	40.0	0	1	248	0.00	29.822 
00:30	43.3	43.3	43.3	88	40.0	0	0	---	0.00	29.819 
00:35	43.2	43.2	43.2	88	39.9	0	1	248	0.00	29.819 
00:40	43.2	43.2	43.2	88	39.9	0	1	248	0.00	29.819 
00:45	43.1	43.1	43.1	88	39.8	0	1	248	0.00	29.813 
00:50	42.9	42.9	42.9	88	39.6	0	0	---	0.00	29.813 
00:55	42.8	42.8	42.8	88	39.5	0	1	248	0.00	29.813 
01:00	42.8	42.8	42.8	88	39.5	0	1	248	0.00	29.810 
01:05	42.6	42.6	42.6	88	39.3	0	1	248	0.00	29.810 
01:10	42.5	42.5	42.5	88	39.2	0	0	---	0.00	29.810 
01:15	42.3	42.3	42.3	88	39.0	0	0	---	0.00	29.807 
01:20	42.2	42.2	42.2	88	38.9	0	0	---	0.00	29.807 
01:25	42.1	42.1	42.1	89	39.1	0	0	---	0.00	29.807 
01:30	42.1	42.1	42.1	89	39.1	0	0	---	0.00	29.807 
01:35	42.2	42.2	42.2	90	39.5	0	0	---	0.00	29.807 
01:40	42.3	42.3	42.3	90	39.6	0	1	248	0.00	29.807 
01:45	42.3	42.3	42.3	90	39.6	0	1	248	0.00	29.806 
01:50	42.6	42.6	42.6	90	39.9	0	1	248	0.00	29.806 
01:55	42.8	42.8	42.8	90	40.1	0	1	248	0.00	29.806 
02:00	42.8	42.8	42.8	90	40.1	0	0	---	0.00	29.800 
02:05	42.8	42.8	42.8	91	40.4	0	1	248	0.00	29.800 
02:10	42.9	42.9	42.9	91	40.5	0	1	248	0.00	29.800 
02:15	42.9	42.9	42.9	91	40.5	0	1	248	0.00	29.800 
02:20	43.1	43.1	43.1	91	40.7	0	1	248	0.00	29.800 
02:25	43.2	43.2	43.2	91	40.8	0	0	---	0.00	29.800 
02:30	43.3	43.3	43.3	91	40.9	0	1	248	0.00	29.803 
02:35	43.5	43.5	43.5	91	41.0	0	1	248	0.00	29.803 
02:40	43.5	43.5	43.5	91	41.0	0	1	248	0.00	29.803 
02:45	43.5	43.5	43.5	91	41.0	0	1	248	0.00	29.806 
02:50	43.5	43.5	43.5	91	41.0	0	1	248	0.00	29.806 
02:55	43.5	43.5	43.5	91	41.0	0	1	248	0.00	29.806 
03:00	43.5	43.5	43.5	91	41.0	0	0	---	0.00	29.806 
03:05	43.3	43.3	43.3	91	40.9	0	1	248	0.00	29.806 
03:10	43.3	43.3	43.3	91	40.9	0	0	---	0.00	29.806 
03:15	43.2	43.2	43.2	91	40.8	0	0	---	0.00	29.806 
03:20	43.1	43.1	43.1	91	40.7	0	1	248	0.00	29.806 
03:25	43.1	43.1	43.1	91	40.7	0	0	---	0.00	29.806 
03:30	43.1	43.1	43.1	91	40.7	0	0	---	0.00	29.806 
03:35	42.9	42.9	42.9	91	40.5	0	1	248	0.00	29.806 
03:40	42.8	42.8	42.8	91	40.4	0	0	---	0.00	29.806 
03:45	42.8	42.8	42.8	91	40.4	0	0	---	0.00	29.802 
03:50	42.6	42.6	42.6	91	40.2	0	0	---	0.00	29.802 
03:55	42.3	42.3	42.3	91	39.9	0	1	248	0.00	29.802 
04:00	42.3	42.3	42.3	91	39.9	0	1	248	0.00	29.798 
04:05	42.2	42.2	42.2	92	40.0	0	1	248	0.00	29.798 
04:10	42.1	42.1	42.1	92	39.9	0	1	248	0.00	29.798 
04:15	42.1	42.1	42.1	92	39.9	0	1	248	0.00	29.794 
04:20	42.1	42.1	42.1	92	39.9	0	1	248	0.00	29.794 
04:25	42.2	42.2	42.2	92	40.0	0	1	248	0.00	29.794 
04:30	42.2	42.2	42.2	92	40.0	0	2	248	0.00	29.798 
04:35	42.3	42.3	42.3	92	40.1	0	1	248	0.00	29.798 
04:40	42.3	42.3	42.3	92	40.1	0	1	248	0.00	29.798 
04:45	42.3	42.3	42.3	92	40.1	0	1	248	0.00	29.795 
04:50	42.3	42.3	42.3	91	39.9	0	1	248	0.00	29.795 
04:55	42.3	42.3	42.3	91	39.9	0	1	248	0.00	29.795 
05:00	42.3	42.3	42.3	91	39.9	0	1	248	0.00	29.794 
05:05	42.3	42.3	42.3	91	39.9	0	1	248	0.00	29.794 
05:10	42.2	42.2	42.2	91	39.8	0	1	248	0.00	29.794 
05:15	42.3	42.3	42.3	91	39.9	0	2	248	0.00	29.795 
05:20	42.3	42.3	42.3	91	39.9	0	1	248	0.00	29.795 
05:25	42.3	42.3	42.3	90	39.6	0	1	248	0.00	29.795 
05:30	42.3	42.3	42.3	90	39.6	0	1	248	0.00	29.784 
05:35	42.2	42.2	42.2	90	39.5	0	1	248	0.00	29.784 
05:40	42.1	42.1	42.1	90	39.4	0	1	248	0.00	29.784 
05:45	42.1	42.1	42.1	90	39.4	0	1	248	0.00	29.780 
05:50	42.1	42.1	42.1	90	39.4	0	2	248	0.00	29.780 
05:55	42.1	42.1	42.1	90	39.4	0	1	248	0.00	29.780 
06:00	41.9	41.9	41.9	90	39.2	0	1	248	0.00	29.780 
06:05	41.9	41.9	41.9	90	39.2	0	1	248	0.00	29.780 
06:10	41.8	41.8	41.8	90	39.1	0	1	248	0.00	29.780 
06:15	41.8	41.8	41.8	90	39.1	0	1	248	0.00	29.785 
06:20	41.8	41.8	41.8	90	39.1	0	1	248	0.00	29.785 
06:25	41.8	41.8	41.8	90	39.1	0	1	248	0.00	29.785 
06:30	41.8	41.8	41.8	90	39.1	0	1	248	0.00	29.788 
06:35	41.8	41.8	41.8	90	39.1	0	0	---	0.00	29.788 
06:40	41.8	41.8	41.8	90	39.1	0	0	---	0.00	29.788 
06:45	41.8	41.8	41.8	90	39.1	0	2	248	0.00	29.795 
06:50	41.9	41.9	41.9	90	39.2	0	2	248	0.00	29.795 
06:55	42.1	42.1	42.1	90	39.4	0	1	248	0.00	29.795 
07:00	42.2	42.2	42.2	90	39.5	0	2	248	0.00	29.793 
07:05	42.2	42.2	42.2	90	39.5	0	1	248	0.00	29.793 
07:10	42.3	42.3	42.3	90	39.6	0	2	248	0.00	29.793 
07:15	42.5	42.5	42.5	89	39.5	0	1	248	0.00	29.793 
07:20	42.5	42.5	42.5	89	39.5	0	2	248	0.00	29.793 
07:25	42.6	42.6	42.6	89	39.6	0	1	248	0.00	29.793 
07:30	42.6	42.6	42.6	89	39.6	0	1	248	0.00	29.792 
07:35	42.5	42.5	42.5	88	39.2	0	2	248	0.00	29.792 
07:40	42.5	42.5	42.5	88	39.2	0	1	248	0.00	29.792 
07:45	42.5	42.5	42.5	88	39.2	0	2	248	0.00	29.789 
07:50	42.3	42.3	42.3	88	39.0	0	3	248	0.00	29.789 
07:55	42.3	42.3	42.3	88	39.0	0	1	248	0.00	29.789 
08:00	42.3	42.3	42.3	88	39.0	0	1	248	0.00	29.792 
08:05	42.3	42.3	42.3	88	39.0	0	2	248	0.00	29.792 
08:10	42.3	42.3	42.3	88	39.0	0	2	248	0.00	29.792 
08:15	42.3	42.3	42.3	87	38.7	0	2	248	0.00	29.791 
08:20	42.3	42.3	42.3	87	38.7	0	1	248	0.00	29.791 
08:25	42.3	42.3	42.3	87	38.7	0	2	248	0.00	29.791 
08:30	42.5	42.5	42.5	87	38.9	0	2	248	0.00	29.783 
08:35	42.5	42.5	42.5	87	38.9	0	2	248	0.00	29.783 
08:40	42.5	42.5	42.5	87	38.9	0	1	248	0.00	29.783 
08:45	42.6	42.6	42.6	87	39.0	0	1	248	0.00	29.782 
08:50	42.9	42.9	42.9	87	39.3	0	2	248	0.00	29.782 
08:55	43.2	43.2	43.2	87	39.6	0	1	248	0.00	29.782 
09:00	43.6	43.6	43.6	86	39.7	0	3	248	0.00	29.781 
09:05	44.1	44.1	44.1	86	40.2	0	2	248	0.00	29.781 
09:10	44.6	44.6	44.6	85	40.4	1	5	248	0.00	29.781 
09:15	44.9	44.9	44.9	84	40.4	0	5	68	0.00	29.781 
09:20	45.2	45.2	45.2	84	40.7	0	2	68	0.00	29.781 
09:25	45.5	45.5	45.5	83	40.6	0	1	68	0.00	29.781 
09:30	45.8	45.8	45.8	83	40.9	0	1	68	0.00	29.779 
09:35	46.1	46.1	46.1	82	40.9	0	4	112	0.00	29.779 
09:40	46.5	46.5	46.5	82	41.3	1	3	112	0.00	29.779 
09:45	47.1	47.1	47.1	81	41.6	0	2	112	0.00	29.769 
09:50	47.6	47.6	47.6	80	41.7	1	4	112	0.00	29.769 
09:55	47.9	47.9	47.9	79	41.7	1	3	112	0.00	29.769 
10:00	48.2	48.2	48.2	79	42.0	0	2	90	0.00	29.761 
10:05	48.5	48.5	48.5	78	42.0	0	3	90	0.00	29.761 
10:10	48.6	48.6	48.6	77	41.7	1	5	90	0.00	29.761 
10:15	48.9	48.9	48.9	77	42.0	0	3	90	0.00	29.761 
10:20	49.2	49.2	49.2	75	41.6	1	5	90	0.00	29.761 
10:25	49.4	49.4	49.4	75	41.8	1	3	112	0.00	29.761 
10:30	49.6	49.6	49.6	75	42.0	1	3	68	0.00	29.757 
10:35	49.9	49.9	49.9	75	42.3	0	2	45	0.00	29.757 
10:40	50.2	50.2	50.2	74	42.2	1	3	22	0.00	29.757 
10:45	50.4	50.4	50.4	74	42.4	1	4	180	0.00	29.744 
10:50	50.5	50.5	50.5	73	42.2	0	3	270	0.00	29.744 
10:55	50.8	50.8	50.8	73	42.5	0	2	315	0.00	29.744 
11:00	51.1	51.1	51.1	73	42.7	1	3	248	0.00	29.740 
11:05	51.3	51.3	51.3	72	42.6	1	5	338	0.00	29.740 
11:10	51.7	51.7	51.7	72	43.0	1	4	248	0.00	29.740 
11:15	51.9	51.9	51.9	71	42.8	1	3	270	0.00	29.728 
11:20	52.0	52.0	52.0	71	42.9	1	5	0	0.00	29.728 
11:25	52.2	52.2	52.2	71	43.1	1	3	90	0.00	29.728 
11:30	52.2	52.2	52.2	70	42.7	2	5	68	0.00	29.715 
11:35	52.2	52.2	52.2	70	42.7	1	4	22	0.00	29.715 
11:40	52.3	52.3	52.3	70	42.8	1	4	90	0.00	29.715 
11:45	52.3	52.3	52.3	70	42.8	2	10	90	0.00	29.705 
11:50	52.3	52.3	52.3	70	42.8	2	7	90	0.00	29.705 
11:55	52.3	52.3	52.3	71	43.2	1	4	68	0.00	29.705 
12:00	52.3	52.3	52.3	71	43.2	1	3	68	0.00	29.695 
12:05	52.3	52.3	52.3	71	43.2	2	5	90	0.00	29.695 
12:10	52.3	52.3	52.3	70	42.8	1	3	292	0.00	29.695 
12:15	52.5	52.5	52.5	70	43.0	1	3	0	0.00	29.694 
12:20	52.5	52.5	52.5	70	43.0	2	9	248	0.00	29.694 
12:25	52.6	52.6	52.6	70	43.1	1	5	68	0.00	29.694 
12:30	52.8	52.8	52.8	69	42.9	1	6	248	0.00	29.684 
12:35	52.9	52.9	52.9	69	43.0	1	4	225	0.00	29.684 
12:40	53.1	53.1	53.1	70	43.6	0	4	248	0.00	29.684 
12:45	53.2	53.2	53.2	69	43.3	1	3	248	0.00	29.678 
12:50	53.3	53.3	53.3	69	43.4	0	3	248	0.00	29.678 
12:55	53.6	53.6	53.6	69	43.7	1	5	248	0.00	29.678 
13:00	53.8	53.8	53.8	69	43.9	1	6	112	0.00	29.673 
13:05	53.8	53.8	53.8	69	43.9	1	4	270	0.00	29.673 
13:10	53.9	53.9	53.9	68	43.6	1	5	68	0.00	29.673 
13:15	53.9	53.9	53.9	69	44.0	1	4	45	0.00	29.666 
13:20	54.1	54.1	54.1	68	43.8	2	6	90	0.00	29.666 
13:25	54.2	54.2	54.2	68	43.9	1	7	90	0.00	29.666 
13:30	54.4	54.4	54.4	68	44.1	1	6	68	0.00	29.663 
13:35	54.4	54.4	54.4	68	44.1	2	7	90	0.00	29.663 
13:40	54.5	54.5	54.5	68	44.2	1	3	90	0.00	29.663 
13:45	54.7	54.7	54.7	67	44.0	2	10	90	0.00	29.656 
13:50	54.8	54.8	54.8	68	44.4	1	4	270	0.00	29.656 
13:55	55.0	55.0	55.0	68	44.6	1	4	0	0.00	29.656 
14:00	55.1	55.1	55.1	67	44.3	1	4	22	0.00	29.657 
14:05	55.3	55.3	55.3	67	44.5	1	7	270	0.00	29.657 
14:10	55.3	55.3	55.3	66	44.1	1	5	68	0.00	29.657 
14:15	55.4	55.4	55.4	67	44.6	0	2	68	0.00	29.647 
14:20	55.4	55.4	55.4	66	44.2	1	6	248	0.00	29.647 
14:25	55.4	55.4	55.4	66	44.2	1	3	248	0.00	29.647 
14:30	55.6	55.6	55.6	66	44.4	1	4	270	0.00	29.643 
14:35	55.6	55.6	55.6	66	44.4	1	3	270	0.00	29.643 
14:40	55.6	55.6	55.6	66	44.4	1	6	248	0.00	29.643 
14:45	55.6	55.6	55.6	66	44.4	1	4	90	0.00	29.642 
14:50	55.4	55.4	55.4	66	44.2	2	5	68	0.00	29.642 
14:55	55.4	55.4	55.4	66	44.2	1	4	68	0.00	29.642 
15:00	55.4	55.4	55.4	66	44.2	1	6	45	0.00	29.634 
15:05	55.3	55.3	55.3	66	44.1	1	5	22	0.00	29.634 
15:10	55.3	55.3	55.3	66	44.1	2	8	90	0.00	29.634 
15:15	55.3	55.3	55.3	67	44.5	1	6	68	0.00	29.630 
15:20	55.1	55.1	55.1	66	43.9	2	6	90	0.00	29.630 
15:25	55.1	55.1	55.1	66	43.9	1	5	112	0.00	29.630 
15:30	55.1	55.1	55.1	65	43.5	1	5	248	0.00	29.632 
15:35	55.1	55.1	55.1	65	43.5	1	4	270	0.00	29.632 
15:40	55.1	55.1	55.1	66	43.9	1	3	202	0.00	29.632 
15:45	55.0	55.0	55.0	66	43.9	1	3	270	0.00	29.631 
15:50	55.0	55.0	55.0	66	43.9	1	5	270	0.00	29.631 
15:55	55.0	55.0	55.0	66	43.9	1	5	135	0.00	29.631 
16:00	55.0	55.0	55.0	66	43.9	2	7	112	0.00	29.621 
16:05	55.0	55.0	55.0	66	43.9	1	4	68	0.00	29.621 
16:10	55.0	55.0	55.0	65	43.5	2	9	112	0.00	29.621 
16:15	55.1	55.1	55.1	65	43.5	2	5	90	0.00	29.605 
16:20	55.1	55.1	55.1	65	43.5	2	6	90	0.00	29.605 
16:25	55.1	55.1	55.1	66	43.9	2	7	90	0.00	29.605 
16:30	55.0	55.0	55.0	66	43.9	1	4	90	0.00	29.599 
16:35	55.0	55.0	55.0	66	43.9	3	9	112	0.00	29.599 
16:40	54.8	54.8	54.8	66	43.7	2	4	90	0.00	29.599 
16:45	54.7	54.7	54.7	66	43.6	2	6	90	0.00	29.596 
16:50	54.5	54.5	54.5	67	43.8	2	6	90	0.00	29.596 
16:55	54.5	54.5	54.5	67	43.8	2	5	90	0.00	29.596 
17:00	54.5	54.5	54.5	67	43.8	3	9	68	0.00	29.594 
17:05	54.5	54.5	54.5	67	43.8	2	7	90	0.00	29.594 
17:10	54.5	54.5	54.5	67	43.8	2	6	90	0.00	29.594 
17:15	54.4	54.4	54.4	67	43.7	1	3	90	0.00	29.597 
17:20	54.4	54.4	54.4	67	43.7	2	6	90	0.00	29.597 
17:25	54.2	54.2	54.2	67	43.5	2	10	112	0.00	29.597 
17:30	54.2	54.2	54.2	67	43.5	2	6	45	0.00	29.588 
17:35	54.2	54.2	54.2	68	43.9	1	6	45	0.00	29.588 
17:40	54.1	54.1	54.1	68	43.8	1	5	68	0.00	29.588 
17:45	54.1	54.1	54.1	69	44.2	2	11	68	0.00	29.587 
17:50	53.9	53.9	53.9	69	44.0	1	4	22	0.00	29.587 
17:55	53.8	53.8	53.8	69	43.9	1	7	45	0.00	29.587 
18:00	53.6	53.6	53.6	70	44.1	2	6	90	0.00	29.590 
18:05	53.5	53.5	53.5	70	44.0	1	9	68	0.00	29.590 
18:10	53.3	53.3	53.3	71	44.1	1	4	338	0.00	29.590 
18:15	53.2	53.2	53.2	71	44.0	1	3	315	0.00	29.601 
18:20	53.2	53.2	53.2	71	44.0	1	5	225	0.00	29.601 
18:25	53.2	53.2	53.2	72	44.4	1	4	90	0.00	29.601 
18:30	53.2	53.2	53.2	72	44.4	1	4	248	0.00	29.602 
18:35	53.2	53.2	53.2	72	44.4	1	4	248	0.00	29.602 
18:40	53.2	53.2	53.2	72	44.4	1	5	248	0.00	29.602 
18:45	53.3	53.3	53.3	71	44.1	1	6	90	0.00	29.614 
18:50	53.3	53.3	53.3	71	44.1	1	6	248	0.00	29.614 
18:55	53.5	53.5	53.5	71	44.3	1	5	248	0.00	29.614 
19:00	53.5	53.5	53.5	71	44.3	1	4	270	0.00	29.616 
19:05	53.6	53.6	53.6	70	44.1	2	7	248	0.00	29.616 
19:10	53.9	53.9	53.9	70	44.3	2	9	270	0.00	29.616 
19:15	54.1	54.1	54.1	70	44.5	2	11	248	0.00	29.614 
19:20	54.1	54.1	54.1	69	44.2	2	10	248	0.00	29.614 
19:25	54.1	54.1	54.1	70	44.5	1	5	248	0.00	29.614 
19:30	53.9	53.9	53.9	70	44.3	2	5	248	0.00	29.612 
19:35	53.9	53.9	53.9	71	44.7	1	4	248	0.00	29.612 
19:40	53.8	53.8	53.8	71	44.6	2	6	248	0.00	29.612 
19:45	53.8	53.8	53.8	72	45.0	2	6	248	0.00	29.613 
19:50	53.6	53.6	53.6	72	44.8	2	7	248	0.00	29.613 
19:55	53.6	53.6	53.6	72	44.8	2	7	248	0.00	29.613 
20:00	53.5	53.5	53.5	73	45.1	2	6	248	0.00	29.613 
20:05	53.5	53.5	53.5	73	45.1	2	5	248	0.00	29.613 
20:10	53.5	53.5	53.5	73	45.1	2	7	248	0.00	29.613 
20:15	53.3	53.3	53.3	73	44.9	2	7	248	0.00	29.617 
20:20	53.3	53.3	53.3	74	45.2	2	6	248	0.00	29.617 
20:25	53.3	53.3	53.3	74	45.2	2	7	248	0.00	29.617 
20:30	53.3	53.3	53.3	74	45.2	2	6	248	0.00	29.628 
20:35	53.3	53.3	53.3	74	45.2	2	5	248	0.00	29.628 
20:40	53.3	53.3	53.3	74	45.2	1	6	248	0.00	29.628 
20:45	53.3	53.3	53.3	74	45.2	1	4	248	0.00	29.630 
20:50	53.3	53.3	53.3	74	45.2	2	5	248	0.00	29.630 
20:55	53.3	53.3	53.3	74	45.2	1	4	248	0.00	29.630 
21:00	53.3	53.3	53.3	74	45.2	2	7	248	0.00	29.633 
21:05	53.3	53.3	53.3	74	45.2	1	4	248	0.00	29.633 
21:10	53.3	53.3	53.3	74	45.2	1	5	225	0.00	29.633 
21:15	53.2	53.2	53.2	74	45.1	2	5	248	0.00	29.629 
21:20	53.1	53.1	53.1	75	45.4	1	4	248	0.00	29.629 
21:25	52.9	52.9	52.9	75	45.2	1	5	248	0.00	29.629 
21:30	52.8	52.8	52.8	75	45.1	1	3	248	0.00	29.632 
21:35	52.8	52.8	52.8	76	45.4	1	4	225	0.00	29.632 
21:40	52.6	52.6	52.6	76	45.3	1	5	248	0.00	29.632 
21:45	52.5	52.5	52.5	76	45.2	1	5	248	0.00	29.637 
21:50	52.3	52.3	52.3	77	45.3	1	3	248	0.00	29.637 
21:55	52.0	52.0	52.0	77	45.0	1	5	248	0.00	29.637 
22:00	51.9	51.9	51.9	77	44.9	0	2	248	0.00	29.635 
22:05	51.7	51.7	51.7	77	44.7	0	3	248	0.00	29.635 
22:10	51.4	51.4	51.4	78	44.8	0	2	248	0.00	29.635 
22:15	51.1	51.1	51.1	78	44.5	0	1	248	0.00	29.639 
22:20	51.0	51.0	51.0	79	44.7	0	2	248	0.00	29.639 
22:25	50.8	50.8	50.8	79	44.5	1	4	248	0.00	29.639 
22:30	50.8	50.8	50.8	79	44.5	0	3	248	0.00	29.639 
22:35	50.5	50.5	50.5	80	44.6	0	2	248	0.00	29.639 
22:40	50.4	50.4	50.4	80	44.5	0	2	248	0.00	29.639 
22:45	50.2	50.2	50.2	80	44.3	0	2	248	0.00	29.643 
22:50	50.1	50.1	50.1	81	44.5	0	1	248	0.00	29.643 
22:55	49.8	49.8	49.8	81	44.2	0	1	248	0.00	29.643 
23:00	49.6	49.6	49.6	81	44.0	0	1	248	0.00	29.644 
23:05	49.2	49.2	49.2	81	43.6	0	1	248	0.00	29.644 
23:10	48.9	48.9	48.9	82	43.6	0	1	248	0.00	29.644 
23:15	48.8	48.8	48.8	83	43.9	0	1	248	0.00	29.644 
23:20	48.8	48.8	48.8	83	43.9	0	1	248	0.00	29.644 
23:25	48.6	48.6	48.6	84	44.0	0	2	248	0.00	29.644 
23:30	48.5	48.5	48.5	84	43.9	0	1	248	0.00	29.650 
23:35	48.5	48.5	48.5	84	43.9	0	1	248	0.00	29.650 
23:40	48.3	48.3	48.3	84	43.7	0	1	248	0.00	29.650 
23:45	48.2	48.2	48.2	84	43.6	0	1	248	0.00	29.658 
23:50	48.0	48.0	48.0	84	43.4	0	1	248	0.00	29.658 
23:55	47.9	47.9	47.9	85	43.6	0	1	248	0.00	29.658 

CoCoRaHS
IN-AL-39
A2 Web Hosting
Creative Commons License
GoDaddy
search engine by freefind advanced

loaded 2018-11-17 18:19:36 • last modified 2010-11-18 10:43:29
Privacy PolicyDisclaimer
• wx.awcolley.com is powered by PmWiki v.2002016 •
• all content (unless otherwise noted) © 2018 A W Colley